Time;durP1;ratioP1;P1;durP2;ratioP2;P2;SDS_P1;SDS_P2;PMS_P1;PMS_P2;Temp;Humidity;BMP_temperature;BMP_pressure;BME280_temperature;BME280_humidity;BME280_pressure;Samples;Min_cycle;Max_cycle;Signal;HPM_P1;HPM_P2
2021/12/29 00:01:27;;;;;;;4.82;1.60;;;22.30;44.70;;;;;;5041176;28;26773;-58
2021/12/29 00:03:53;;;;;;;2.05;1.02;;;22.30;44.60;;;;;;5018403;28;20084;-57
2021/12/29 00:06:19;;;;;;;1.33;1.02;;;22.30;44.60;;;;;;5014478;28;21155;-58
2021/12/29 00:08:44;;;;;;;3.75;1.17;;;22.20;44.60;;;;;;5016663;28;20069;-60
2021/12/29 00:11:10;;;;;;;2.20;1.05;;;22.20;44.60;;;;;;5012070;28;20029;-58
2021/12/29 00:13:36;;;;;;;1.98;1.20;;;22.20;44.60;;;;;;5016506;28;20039;-59
2021/12/29 00:16:02;;;;;;;2.55;0.98;;;22.20;44.60;;;;;;5011794;28;21080;-59
2021/12/29 00:18:31;;;;;;;1.33;0.90;;;22.10;44.60;;;;;;5013659;28;20057;-58
2021/12/29 00:20:59;;;;;;;1.63;1.00;;;22.10;44.70;;;;;;5015977;28;20063;-59
2021/12/29 00:23:25;;;;;;;1.13;0.90;;;22.10;44.70;;;;;;5014864;28;20530;-60
2021/12/29 00:25:51;;;;;;;1.38;0.88;;;22.10;44.70;;;;;;5015556;28;20021;-58
2021/12/29 00:28:17;;;;;;;2.05;1.30;;;22.10;44.70;;;;;;5012495;28;20048;-59
2021/12/29 00:30:44;;;;;;;1.83;0.90;;;22.10;44.70;;;;;;5013571;28;20398;-59
2021/12/29 00:33:10;;;;;;;1.00;0.90;;;22.10;44.80;;;;;;5013951;28;20490;-59
2021/12/29 00:35:38;;;;;;;1.13;1.00;;;22.00;44.80;;;;;;5015260;28;20160;-59
2021/12/29 00:38:06;;;;;;;1.00;0.90;;;22.00;44.80;;;;;;5015423;28;20109;-59
2021/12/29 00:40:34;;;;;;;2.42;1.20;;;22.00;44.80;;;;;;5014942;28;20112;-60
2021/12/29 00:43:00;;;;;;;1.30;1.20;;;22.00;44.80;;;;;;5011463;28;23009;-58
2021/12/29 00:45:26;;;;;;;1.30;1.20;;;22.00;44.80;;;;;;5013984;28;20495;-58
2021/12/29 00:47:52;;;;;;;1.85;1.20;;;21.90;44.70;;;;;;5015017;28;20474;-59
2021/12/29 00:50:18;;;;;;;3.83;1.20;;;21.90;44.80;;;;;;5015099;28;20038;-59
2021/12/29 00:52:45;;;;;;;2.75;1.40;;;21.90;44.70;;;;;;5014356;28;20060;-59
2021/12/29 00:55:12;;;;;;;2.53;1.45;;;21.90;44.80;;;;;;5013420;28;20049;-58
2021/12/29 00:57:38;;;;;;;1.50;1.30;;;21.90;44.80;;;;;;5012808;28;20044;-60
2021/12/29 01:00:15;;;;;;;2.05;1.33;;;21.90;44.80;;;;;;5014177;28;20103;-60
2021/12/29 01:02:41;;;;;;;2.78;1.40;;;21.90;44.80;;;;;;5014655;28;20179;-58
2021/12/29 01:05:09;;;;;;;1.77;1.45;;;21.80;44.80;;;;;;5013254;28;20635;-59
2021/12/29 01:07:35;;;;;;;2.83;1.55;;;21.80;44.80;;;;;;5014059;28;20042;-58
2021/12/29 01:10:03;;;;;;;1.73;1.55;;;21.80;44.90;;;;;;5016429;28;20038;-58
2021/12/29 01:12:29;;;;;;;1.30;1.20;;;21.80;44.80;;;;;;5011078;28;25029;-60
2021/12/29 01:14:56;;;;;;;2.28;1.70;;;21.80;44.90;;;;;;5015237;28;20052;-59
2021/12/29 01:17:23;;;;;;;1.67;1.52;;;21.70;44.80;;;;;;5012009;28;20130;-59
2021/12/29 01:19:54;;;;;;;1.90;1.50;;;21.70;44.90;;;;;;5015342;28;20065;-58
2021/12/29 01:22:21;;;;;;;1.83;1.50;;;21.70;44.90;;;;;;5013920;28;20045;-58
2021/12/29 01:24:47;;;;;;;2.30;1.63;;;21.70;44.90;;;;;;5014720;28;20272;-59
2021/12/29 01:27:14;;;;;;;2.05;1.58;;;21.70;45.00;;;;;;5014597;28;25676;-58
2021/12/29 01:29:40;;;;;;;2.75;1.63;;;21.70;45.00;;;;;;5011798;28;20035;-60
2021/12/29 01:32:06;;;;;;;1.90;1.42;;;21.60;44.90;;;;;;5031107;28;20486;-60
2021/12/29 01:34:32;;;;;;;1.80;1.48;;;21.60;44.90;;;;;;5013398;28;20037;-59
2021/12/29 01:36:58;;;;;;;2.30;1.55;;;21.60;44.90;;;;;;5016575;28;20092;-58
2021/12/29 01:39:24;;;;;;;3.47;1.65;;;21.60;44.90;;;;;;5015929;28;20047;-58
2021/12/29 01:41:51;;;;;;;2.90;1.73;;;21.60;45.00;;;;;;5018904;28;20045;-59
2021/12/29 01:44:21;;;;;;;2.20;1.50;;;21.60;45.00;;;;;;5013921;28;20270;-60
2021/12/29 01:46:47;;;;;;;2.65;1.40;;;21.50;44.90;;;;;;5014808;28;20042;-59
2021/12/29 01:49:13;;;;;;;2.25;1.65;;;21.50;44.90;;;;;;5015324;28;20095;-59
2021/12/29 01:51:48;;;;;;;1.90;1.63;;;21.50;44.90;;;;;;5015573;28;20072;-59
2021/12/29 01:54:23;;;;;;;2.60;1.40;;;21.50;44.90;;;;;;5013275;28;20038;-60
2021/12/29 01:56:51;;;;;;;2.15;1.52;;;21.50;45.00;;;;;;5012889;28;20046;-59
2021/12/29 01:59:17;;;;;;;1.40;1.30;;;21.50;45.00;;;;;;5017243;28;20045;-60
2021/12/29 02:01:43;;;;;;;2.70;1.80;;;21.50;45.10;;;;;;5013768;28;20050;-58
2021/12/29 02:04:09;;;;;;;2.67;1.35;;;21.40;45.00;;;;;;5018805;28;20398;-59
2021/12/29 02:06:35;;;;;;;4.30;1.67;;;21.50;45.10;;;;;;5014559;28;20045;-58
2021/12/29 02:09:01;;;;;;;2.72;1.42;;;21.40;45.00;;;;;;5017263;28;26717;-59
2021/12/29 02:11:30;;;;;;;3.58;1.40;;;21.40;45.00;;;;;;5015431;28;20030;-58
2021/12/29 02:14:00;;;;;;;2.58;1.63;;;21.40;45.10;;;;;;5018437;28;20204;-59
2021/12/29 02:16:27;;;;;;;3.22;1.60;;;21.40;45.10;;;;;;5016749;28;20495;-58
2021/12/29 02:18:58;;;;;;;2.20;1.80;;;21.40;45.10;;;;;;5015952;28;20034;-59
2021/12/29 02:21:26;;;;;;;2.10;1.58;;;21.40;45.10;;;;;;5015246;28;27560;-58
2021/12/29 02:24:15;;;;;;;5.45;2.00;;;21.40;45.20;;;;;;5015852;28;20033;-59
2021/12/29 02:26:40;;;;;;;3.22;1.73;;;21.30;45.20;;;;;;5016827;28;20051;-59
2021/12/29 02:29:09;;;;;;;1.98;1.50;;;21.30;45.20;;;;;;5015697;28;20102;-58
2021/12/29 02:31:36;;;;;;;1.60;1.45;;;21.30;45.20;;;;;;5018938;28;20034;-59
2021/12/29 02:34:03;;;;;;;2.70;1.65;;;21.30;45.20;;;;;;5020037;28;20042;-58
2021/12/29 02:36:29;;;;;;;3.88;1.75;;;21.30;45.20;;;;;;5014134;28;27097;-58
2021/12/29 02:38:56;;;;;;;3.50;1.55;;;21.30;45.30;;;;;;5020490;28;20046;-59
2021/12/29 02:41:25;;;;;;;2.65;1.85;;;21.30;45.30;;;;;;5016618;28;20046;-58
2021/12/29 02:43:58;;;;;;;5.35;1.77;;;21.30;45.30;;;;;;5019411;28;20043;-59
2021/12/29 02:46:25;;;;;;;3.22;1.40;;;21.30;45.40;;;;;;5015228;28;20521;-59
2021/12/29 02:48:58;;;;;;;2.58;1.85;;;21.20;45.30;;;;;;5017778;28;20076;-57
2021/12/29 02:51:24;;;;;;;3.42;1.98;;;21.20;45.30;;;;;;5013962;28;27137;-60
2021/12/29 02:53:50;;;;;;;3.63;1.60;;;21.20;45.30;;;;;;5015315;28;20167;-59
2021/12/29 02:56:16;;;;;;;1.50;1.40;;;21.20;45.30;;;;;;5016807;28;20030;-59
2021/12/29 02:58:41;;;;;;;1.30;1.20;;;21.20;45.30;;;;;;5016307;28;20046;-59
2021/12/29 03:01:10;;;;;;;3.00;1.30;;;21.20;45.40;;;;;;5010898;28;20044;-58
2021/12/29 03:03:39;;;;;;;1.77;1.23;;;21.20;45.40;;;;;;5012460;28;20114;-59
2021/12/29 03:06:06;;;;;;;2.08;1.10;;;21.20;45.40;;;;;;5015057;28;20587;-59
2021/12/29 03:08:32;;;;;;;3.58;1.52;;;21.20;45.30;;;;;;5017267;28;20139;-59
2021/12/29 03:10:58;;;;;;;2.17;1.30;;;21.20;45.40;;;;;;5018620;28;20106;-59
2021/12/29 03:13:25;;;;;;;4.22;1.35;;;21.10;45.30;;;;;;5013274;28;20108;-59
2021/12/29 03:15:52;;;;;;;5.28;1.67;;;21.10;45.30;;;;;;5017398;28;20041;-58
2021/12/29 03:18:18;;;;;;;3.38;1.15;;;21.10;45.40;;;;;;5012460;28;26223;-59
2021/12/29 03:20:44;;;;;;;1.50;1.02;;;21.10;45.30;;;;;;5016818;28;20096;-60
2021/12/29 03:23:10;;;;;;;2.75;1.08;;;21.10;45.40;;;;;;5014270;28;20099;-58
2021/12/29 03:25:36;;;;;;;1.63;1.00;;;21.10;45.40;;;;;;5015051;28;20033;-59
2021/12/29 03:28:02;;;;;;;2.38;1.00;;;21.10;45.40;;;;;;5017301;28;20047;-58
2021/12/29 03:30:29;;;;;;;2.13;1.00;;;21.10;45.30;;;;;;5014996;28;20049;-60
2021/12/29 03:33:05;;;;;;;3.90;0.98;;;21.10;45.40;;;;;;5014797;28;30755;-60
2021/12/29 03:35:37;;;;;;;2.45;1.20;;;21.10;45.40;;;;;;5014087;28;20056;-59
2021/12/29 03:38:05;;;;;;;1.83;0.90;;;21.10;45.40;;;;;;5010903;28;20068;-59
2021/12/29 03:40:31;;;;;;;3.30;0.75;;;21.10;45.50;;;;;;5044773;28;20080;-58
2021/12/29 03:42:57;;;;;;;2.50;1.20;;;21.00;45.50;;;;;;5016270;28;20133;-59
2021/12/29 03:45:23;;;;;;;1.20;0.82;;;21.00;45.40;;;;;;5013676;28;20608;-60
2021/12/29 03:47:49;;;;;;;2.45;1.10;;;21.00;45.40;;;;;;5014601;28;20470;-59
2021/12/29 03:50:15;;;;;;;2.42;1.23;;;21.00;45.40;;;;;;5014979;28;20037;-59
2021/12/29 03:52:41;;;;;;;3.50;1.20;;;21.00;45.40;;;;;;5015796;28;20072;-58
2021/12/29 03:55:07;;;;;;;2.70;1.40;;;21.00;46.20;;;;;;5016529;28;20909;-59
2021/12/29 03:57:34;;;;;;;1.27;1.17;;;21.00;45.40;;;;;;5014354;28;20593;-58
2021/12/29 03:59:59;;;;;;;2.10;1.00;;;21.00;45.40;;;;;;5016892;28;20053;-58
2021/12/29 04:02:25;;;;;;;3.15;1.10;;;21.00;45.40;;;;;;5015977;28;20482;-59
2021/12/29 04:04:50;;;;;;;2.72;1.10;;;21.00;45.50;;;;;;5014387;28;20476;-58
2021/12/29 04:07:16;;;;;;;2.15;1.10;;;21.00;45.40;;;;;;5017121;28;20037;-59
2021/12/29 04:09:42;;;;;;;2.13;1.20;;;21.00;45.40;;;;;;5013914;28;20046;-58
2021/12/29 04:12:08;;;;;;;1.95;1.10;;;21.00;45.40;;;;;;5014275;28;20056;-58
2021/12/29 04:14:33;;;;;;;2.08;1.05;;;20.90;45.40;;;;;;5012456;28;20527;-58
2021/12/29 04:17:08;;;;;;;1.58;1.10;;;20.90;45.40;;;;;;5013616;28;20049;-59
2021/12/29 04:20:54;;;;;;;1.23;1.13;;;20.90;45.40;;;;;;5013728;28;20081;-59
2021/12/29 04:22:26;;;;;;;1.42;1.30;;;20.90;45.50;;;;;;5014774;28;20045;-59
2021/12/29 04:24:52;;;;;;;2.30;1.30;;;20.90;45.50;;;;;;5044996;28;20049;-58
2021/12/29 04:27:19;;;;;;;2.67;1.20;;;20.90;45.50;;;;;;5016130;28;20508;-59
2021/12/29 04:29:44;;;;;;;3.30;1.42;;;20.90;45.50;;;;;;5013340;28;25336;-58
2021/12/29 04:32:10;;;;;;;1.73;1.10;;;20.90;45.50;;;;;;5015320;28;20572;-59
2021/12/29 04:34:35;;;;;;;2.40;1.20;;;20.90;45.50;;;;;;5015521;28;20050;-59
2021/12/29 04:37:01;;;;;;;1.95;1.10;;;20.90;45.50;;;;;;5015535;28;20045;-60
2021/12/29 04:39:26;;;;;;;1.70;1.20;;;20.90;45.50;;;;;;5014671;28;20132;-59
2021/12/29 04:41:52;;;;;;;1.77;1.30;;;20.90;45.50;;;;;;5013822;28;21392;-58
2021/12/29 04:44:17;;;;;;;1.35;1.25;;;20.90;45.60;;;;;;5014921;28;25449;-58
2021/12/29 04:46:46;;;;;;;1.63;1.25;;;20.90;45.60;;;;;;5015622;28;20039;-59
2021/12/29 04:49:13;;;;;;;2.47;1.30;;;20.80;45.50;;;;;;5017099;28;20055;-59
2021/12/29 04:51:48;;;;;;;3.13;1.50;;;20.80;45.50;;;;;;5011292;28;20025;-59
2021/12/29 04:54:13;;;;;;;3.25;1.40;;;20.80;45.60;;;;;;5014053;28;20046;-60
2021/12/29 04:56:39;;;;;;;1.92;1.00;;;20.80;45.50;;;;;;5012627;28;27797;-59
2021/12/29 04:59:05;;;;;;;2.15;1.30;;;20.80;45.60;;;;;;5013984;28;20042;-58
2021/12/29 05:01:31;;;;;;;2.58;1.33;;;20.80;45.60;;;;;;5006863;28;20077;-59
2021/12/29 05:03:57;;;;;;;1.35;1.13;;;20.80;45.60;;;;;;5010720;28;20037;-58
2021/12/29 05:08:48;;;;;;;2.00;1.17;;;20.80;45.60;;;;;;5011547;28;20517;-59
2021/12/29 05:11:15;;;;;;;1.83;1.40;;;20.80;45.80;;;;;;5013035;28;20034;-59
2021/12/29 05:13:43;;;;;;;2.00;1.17;;;20.80;45.70;;;;;;5010682;28;20034;-59
2021/12/29 05:16:09;;;;;;;2.20;1.30;;;20.70;45.80;;;;;;5015195;28;20098;-59
2021/12/29 05:18:37;;;;;;;2.03;1.30;;;20.80;45.90;;;;;;5013500;28;20050;-58
2021/12/29 05:21:05;;;;;;;4.53;1.17;;;20.70;45.80;;;;;;5009771;28;20104;-58
2021/12/29 05:23:31;;;;;;;2.35;1.45;;;20.70;46.00;;;;;;5014335;28;20041;-59
2021/12/29 05:25:57;;;;;;;1.70;1.30;;;20.70;46.00;;;;;;5010356;28;25467;-60
2021/12/29 05:28:24;;;;;;;1.65;1.23;;;20.70;46.00;;;;;;5015785;28;20056;-58
2021/12/29 05:30:52;;;;;;;1.23;1.10;;;20.70;46.00;;;;;;5012702;28;20029;-58
2021/12/29 05:33:18;;;;;;;2.65;1.50;;;20.70;46.10;;;;;;5012198;28;20321;-60
2021/12/29 05:35:44;;;;;;;2.78;1.45;;;20.70;46.00;;;;;;5012024;28;20038;-59
2021/12/29 05:38:10;;;;;;;1.40;1.10;;;20.70;46.10;;;;;;5013217;28;20044;-58
2021/12/29 05:40:35;;;;;;;2.63;1.35;;;20.70;46.10;;;;;;5014164;28;26531;-60
2021/12/29 05:43:02;;;;;;;3.10;1.40;;;20.70;46.10;;;;;;5015716;28;21000;-57
2021/12/29 05:45:28;;;;;;;1.70;1.08;;;20.70;46.10;;;;;;5014897;28;20068;-57
2021/12/29 05:47:55;;;;;;;1.83;1.30;;;20.70;46.20;;;;;;5015490;28;20036;-59
2021/12/29 05:50:24;;;;;;;3.25;1.40;;;20.70;46.20;;;;;;5014150;28;20042;-59
2021/12/29 05:52:50;;;;;;;2.08;1.23;;;20.70;46.30;;;;;;5012296;28;20050;-58
2021/12/29 05:55:16;;;;;;;1.63;1.20;;;20.60;46.20;;;;;;5010831;28;20096;-59
2021/12/29 05:57:42;;;;;;;2.20;1.27;;;20.60;46.30;;;;;;5014339;28;20842;-59
2021/12/29 06:00:11;;;;;;;1.25;1.00;;;20.60;46.40;;;;;;5011388;28;20030;-59
2021/12/29 06:02:37;;;;;;;1.80;1.20;;;20.60;46.30;;;;;;5012963;28;20405;-58
2021/12/29 06:05:04;;;;;;;1.08;0.98;;;20.60;46.30;;;;;;5011514;28;20041;-58
2021/12/29 06:07:29;;;;;;;3.50;1.52;;;20.60;46.30;;;;;;5012814;28;20072;-58
2021/12/29 06:09:55;;;;;;;1.40;1.25;;;20.60;46.40;;;;;;5013506;28;20042;-58
2021/12/29 06:12:20;;;;;;;2.72;1.48;;;20.60;46.40;;;;;;5013324;28;20048;-58
2021/12/29 06:14:47;;;;;;;2.08;1.23;;;20.60;46.30;;;;;;5014665;28;20161;-58
2021/12/29 06:17:14;;;;;;;2.65;1.33;;;20.60;46.30;;;;;;5014251;28;20059;-58
2021/12/29 06:19:40;;;;;;;2.17;1.40;;;20.60;46.30;;;;;;5018068;28;20038;-58
2021/12/29 06:22:10;;;;;;;2.55;1.42;;;20.60;46.30;;;;;;5010886;28;27235;-58
2021/12/29 06:24:39;;;;;;;2.08;1.08;;;20.60;46.20;;;;;;5016602;28;20100;-58
2021/12/29 06:27:05;;;;;;;1.77;1.20;;;20.60;46.20;;;;;;5017728;28;20169;-59
2021/12/29 06:29:31;;;;;;;1.83;1.25;;;20.60;46.30;;;;;;5019724;28;20504;-58
2021/12/29 06:31:56;;;;;;;2.50;1.33;;;20.70;46.30;;;;;;5016049;28;20033;-58
2021/12/29 06:34:22;;;;;;;4.63;1.30;;;20.70;46.30;;;;;;5009054;28;20118;-58
2021/12/29 06:36:48;;;;;;;6.40;1.30;;;20.70;46.30;;;;;;5011668;28;27498;-58
2021/12/29 06:39:14;;;;;;;3.15;1.50;;;20.70;46.40;;;;;;5016034;28;20049;-57
2021/12/29 06:41:40;;;;;;;3.28;1.60;;;20.70;46.40;;;;;;5015155;28;20626;-57
2021/12/29 06:44:06;;;;;;;3.13;1.35;;;20.70;46.40;;;;;;5016570;28;20037;-59
2021/12/29 06:46:32;;;;;;;2.75;1.20;;;20.70;46.50;;;;;;5017351;28;20635;-58
2021/12/29 06:48:58;;;;;;;3.47;1.30;;;20.70;46.50;;;;;;5012530;28;23774;-58
2021/12/29 06:51:23;;;;;;;1.95;1.10;;;20.70;46.50;;;;;;5016970;28;20064;-58
2021/12/29 06:53:49;;;;;;;3.15;1.40;;;20.70;46.50;;;;;;5014460;28;20060;-58
2021/12/29 06:56:15;;;;;;;2.20;1.20;;;20.80;46.60;;;;;;5017632;28;20037;-58
2021/12/29 06:58:40;;;;;;;2.65;1.15;;;20.80;46.70;;;;;;5015893;28;20049;-57
2021/12/29 07:01:06;;;;;;;2.38;1.30;;;20.80;46.70;;;;;;5018556;28;20043;-57
2021/12/29 07:03:32;;;;;;;2.20;1.25;;;20.80;46.70;;;;;;5012751;28;20057;-58
2021/12/29 07:05:59;;;;;;;4.03;1.20;;;20.80;46.70;;;;;;5014964;28;20050;-58
2021/12/29 07:08:25;;;;;;;1.88;1.13;;;20.80;46.70;;;;;;5017998;28;20037;-57
2021/12/29 07:10:50;;;;;;;2.78;1.40;;;20.80;46.70;;;;;;5014607;28;20034;-57
2021/12/29 07:13:16;;;;;;;3.00;1.50;;;20.80;46.80;;;;;;5014915;28;20041;-58
2021/12/29 07:15:41;;;;;;;2.65;1.40;;;20.80;46.80;;;;;;5015240;28;20390;-58
2021/12/29 07:18:07;;;;;;;2.45;1.35;;;20.80;46.80;;;;;;5013801;28;20045;-58
2021/12/29 07:20:33;;;;;;;3.15;1.23;;;20.90;46.80;;;;;;5015108;28;20386;-58
2021/12/29 07:22:58;;;;;;;2.80;1.50;;;20.90;47.60;;;;;;5015453;28;20124;-59
2021/12/29 07:25:24;;;;;;;3.10;1.50;;;20.90;46.90;;;;;;5018623;28;20112;-59
2021/12/29 07:27:51;;;;;;;5.15;1.38;;;20.90;46.90;;;;;;5013320;28;20029;-59
2021/12/29 07:30:17;;;;;;;3.03;1.30;;;20.90;46.80;;;;;;5015550;28;20357;-58
2021/12/29 07:32:43;;;;;;;2.33;1.23;;;20.90;46.80;;;;;;4992014;28;20738;-58
2021/12/29 07:35:09;;;;;;;2.55;1.75;;;20.90;46.90;;;;;;5046265;28;20048;-58
2021/12/29 07:37:35;;;;;;;2.70;1.10;;;20.90;46.80;;;;;;5014396;28;20123;-58
2021/12/29 07:40:05;;;;;;;2.72;1.40;;;20.90;46.80;;;;;;5014301;28;20030;-58
2021/12/29 07:42:32;;;;;;;2.78;1.65;;;20.90;46.80;;;;;;5016866;28;20045;-58
2021/12/29 07:44:58;;;;;;;3.47;1.55;;;20.90;46.80;;;;;;5011824;28;22259;-58
2021/12/29 07:47:23;;;;;;;2.78;1.20;;;20.90;46.80;;;;;;5015708;28;20077;-58
2021/12/29 07:49:49;;;;;;;1.85;1.20;;;20.90;46.80;;;;;;5014588;28;20038;-58
2021/12/29 07:52:14;;;;;;;2.53;1.30;;;20.90;46.80;;;;;;5017626;28;20037;-57
2021/12/29 07:54:40;;;;;;;3.13;1.17;;;20.90;46.70;;;;;;5015871;28;20044;-58
2021/12/29 07:57:06;;;;;;;2.80;1.20;;;21.00;46.70;;;;;;5016405;28;20037;-58
2021/12/29 07:59:31;;;;;;;2.13;1.08;;;21.00;46.70;;;;;;5015909;28;20037;-58
2021/12/29 08:01:58;;;;;;;1.92;1.00;;;21.00;46.70;;;;;;5015959;28;20470;-58
2021/12/29 08:04:24;;;;;;;1.83;1.08;;;21.00;46.70;;;;;;5016256;28;20481;-58
2021/12/29 08:06:52;;;;;;;1.67;0.90;;;21.00;46.70;;;;;;5015043;28;20148;-58
2021/12/29 08:09:17;;;;;;;2.38;0.90;;;21.00;46.70;;;;;;5016909;28;20041;-57
2021/12/29 08:11:43;;;;;;;2.28;1.20;;;21.00;47.40;;;;;;5017535;28;20046;-58
2021/12/29 08:14:09;;;;;;;3.55;1.35;;;21.00;46.60;;;;;;5011378;28;28050;-58
2021/12/29 08:16:35;;;;;;;2.42;1.45;;;21.00;46.60;;;;;;5016090;28;20049;-58
2021/12/29 08:19:00;;;;;;;2.20;1.25;;;21.00;46.60;;;;;;5017186;28;20060;-58
2021/12/29 08:21:26;;;;;;;3.45;1.33;;;21.10;46.80;;;;;;5015706;28;20501;-58
2021/12/29 08:23:52;;;;;;;2.50;1.23;;;21.10;46.90;;;;;;5015922;28;20549;-59
2021/12/29 08:26:19;;;;;;;3.08;1.38;;;21.10;47.00;;;;;;5013259;28;20040;-58
2021/12/29 08:28:45;;;;;;;2.53;1.27;;;21.10;47.00;;;;;;5012755;28;27198;-58
2021/12/29 08:31:11;;;;;;;1.70;1.20;;;21.10;47.10;;;;;;5014308;28;20041;-58
2021/12/29 08:33:38;;;;;;;2.70;1.45;;;21.10;47.10;;;;;;5014359;28;20052;-59
2021/12/29 08:36:07;;;;;;;1.88;1.35;;;21.10;47.10;;;;;;5013616;28;20072;-58
2021/12/29 08:38:34;;;;;;;2.13;1.48;;;21.10;47.20;;;;;;5014266;28;20068;-57
2021/12/29 08:41:00;;;;;;;2.72;1.25;;;21.20;47.20;;;;;;5014762;28;20060;-57
2021/12/29 08:43:26;;;;;;;5.05;1.55;;;21.20;47.30;;;;;;5012686;28;20514;-58
2021/12/29 08:45:52;;;;;;;2.72;1.42;;;21.20;47.40;;;;;;5015730;28;20033;-58
2021/12/29 08:48:18;;;;;;;1.70;1.10;;;21.20;47.40;;;;;;5014916;28;20430;-57
2021/12/29 08:50:44;;;;;;;3.35;1.60;;;21.20;47.30;;;;;;5008144;28;20590;-58
2021/12/29 08:53:11;;;;;;;2.03;1.35;;;21.20;47.40;;;;;;5014951;28;20121;-58
2021/12/29 08:55:39;;;;;;;3.17;1.70;;;21.20;47.40;;;;;;5010986;28;27224;-58
2021/12/29 08:58:06;;;;;;;2.42;1.10;;;21.20;47.50;;;;;;5013092;28;20037;-58
2021/12/29 09:00:33;;;;;;;2.13;1.35;;;21.20;47.40;;;;;;5015063;28;20366;-60
2021/12/29 09:02:59;;;;;;;3.08;1.38;;;21.20;47.50;;;;;;5011964;28;20088;-57
2021/12/29 09:05:24;;;;;;;2.60;1.42;;;21.20;47.50;;;;;;5012086;28;20121;-58
2021/12/29 09:07:50;;;;;;;3.38;1.50;;;21.20;47.60;;;;;;5010452;28;20038;-58
2021/12/29 09:10:19;;;;;;;2.33;1.52;;;21.30;47.60;;;;;;5013382;28;20033;-58
2021/12/29 09:12:47;;;;;;;3.95;1.52;;;21.30;47.70;;;;;;5012284;28;20088;-57
2021/12/29 09:15:14;;;;;;;2.85;1.50;;;21.30;47.80;;;;;;5013280;28;20686;-59
2021/12/29 09:17:40;;;;;;;2.33;1.60;;;21.30;47.80;;;;;;5012649;28;20061;-59
2021/12/29 09:20:13;;;;;;;2.05;1.58;;;21.30;47.90;;;;;;5013582;28;20037;-58
2021/12/29 09:22:39;;;;;;;3.35;1.70;;;21.30;47.90;;;;;;5011497;28;20128;-58
2021/12/29 09:25:05;;;;;;;1.85;1.42;;;21.30;47.90;;;;;;5010358;28;23702;-58
2021/12/29 09:27:31;;;;;;;2.40;1.65;;;21.40;48.00;;;;;;5014166;28;20099;-58
2021/12/29 09:29:56;;;;;;;2.40;1.67;;;21.40;48.00;;;;;;5012175;28;20541;-57
2021/12/29 09:32:22;;;;;;;2.42;1.60;;;21.30;48.00;;;;;;5013444;28;20061;-58
2021/12/29 09:34:48;;;;;;;2.30;1.65;;;21.40;48.30;;;;;;5010928;28;20050;-59
2021/12/29 09:37:13;;;;;;;2.97;1.50;;;21.40;48.40;;;;;;5012872;28;20056;-59
2021/12/29 09:39:39;;;;;;;3.15;1.40;;;21.40;48.40;;;;;;5011221;28;26638;-58
2021/12/29 09:42:05;;;;;;;1.85;1.35;;;21.50;48.50;;;;;;5013337;28;21497;-58
2021/12/29 09:44:31;;;;;;;1.77;1.40;;;21.50;48.60;;;;;;5013898;28;20044;-59
2021/12/29 09:46:57;;;;;;;3.13;1.33;;;21.50;48.50;;;;;;5011964;28;20452;-58
2021/12/29 09:49:22;;;;;;;2.58;1.40;;;21.50;48.50;;;;;;5011556;28;20037;-58
2021/12/29 09:51:50;;;;;;;2.80;1.63;;;21.50;48.50;;;;;;5011935;28;20042;-59
2021/12/29 09:54:16;;;;;;;1.80;1.20;;;21.50;48.50;;;;;;5011929;28;20045;-58
2021/12/29 09:56:41;;;;;;;2.80;1.30;;;21.60;48.60;;;;;;5013096;28;20036;-58
2021/12/29 09:59:07;;;;;;;2.25;1.58;;;21.60;48.50;;;;;;5014367;28;20980;-59
2021/12/29 10:01:32;;;;;;;1.65;1.08;;;21.60;48.50;;;;;;5018631;28;20363;-59
2021/12/29 10:03:58;;;;;;;2.15;1.30;;;21.60;48.50;;;;;;5017171;28;20088;-59
2021/12/29 10:06:24;;;;;;;2.25;1.40;;;21.60;48.50;;;;;;5013266;28;27721;-59
2021/12/29 10:08:50;;;;;;;2.67;1.20;;;21.60;48.50;;;;;;5016400;28;20592;-58
2021/12/29 10:11:26;;;;;;;3.10;1.20;;;21.60;48.50;;;;;;5016371;28;20029;-58
2021/12/29 10:13:52;;;;;;;2.25;1.30;;;21.70;48.60;;;;;;5017375;28;20052;-58
2021/12/29 10:16:24;;;;;;;2.28;1.00;;;21.60;48.40;;;;;;5015715;28;20065;-58
2021/12/29 10:18:57;;;;;;;4.80;1.60;;;21.60;48.30;;;;;;5016032;28;20172;-58
2021/12/29 10:21:26;;;;;;;2.55;1.33;;;21.60;48.30;;;;;;5013475;28;20091;-58
2021/12/29 10:23:54;;;;;;;5.10;1.50;;;21.60;48.30;;;;;;5015998;28;20107;-60
2021/12/29 10:26:26;;;;;;;2.97;1.30;;;21.70;48.40;;;;;;5016497;28;20041;-58
2021/12/29 10:29:00;;;;;;;2.17;1.40;;;21.70;48.30;;;;;;5015917;28;20045;-59
2021/12/29 10:31:38;;;;;;;4.07;1.50;;;21.70;48.20;;;;;;5015400;28;20033;-59
2021/12/29 10:34:10;;;;;;;4.00;1.17;;;21.70;48.30;;;;;;5013610;28;27310;-58
2021/12/29 10:36:57;;;;;;;2.65;1.20;;;21.70;48.30;;;;;;5015823;28;20105;-56
2021/12/29 10:39:26;;;;;;;2.03;1.30;;;21.70;48.30;;;;;;5016030;28;20061;-58
2021/12/29 10:42:02;;;;;;;2.33;1.23;;;21.70;48.30;;;;;;5014559;28;20419;-58
2021/12/29 10:44:40;;;;;;;3.30;0.93;;;21.70;48.30;;;;;;5014388;28;20033;-59
2021/12/29 10:47:16;;;;;;;3.35;1.35;;;21.70;48.20;;;;;;5011990;28;20037;-59
2021/12/29 10:49:50;;;;;;;3.65;1.58;;;21.70;48.20;;;;;;5010562;28;25556;-59
2021/12/29 10:52:16;;;;;;;3.90;1.10;;;21.70;48.20;;;;;;5019005;28;20517;-60
2021/12/29 10:54:41;;;;;;;3.97;1.30;;;21.70;48.20;;;;;;5016620;28;20045;-59
2021/12/29 10:57:12;;;;;;;3.25;1.10;;;21.70;48.20;;;;;;5016560;28;20446;-59
2021/12/29 10:59:41;;;;;;;4.82;1.17;;;21.70;48.10;;;;;;5017442;28;20091;-57
2021/12/29 11:02:10;;;;;;;2.58;1.15;;;21.70;48.00;;;;;;5015196;28;20087;-59
2021/12/29 11:04:36;;;;;;;4.78;1.52;;;21.70;48.00;;;;;;5013550;28;20347;-60
2021/12/29 11:07:03;;;;;;;3.78;1.25;;;21.70;47.90;;;;;;5017628;28;20039;-59
2021/12/29 11:09:32;;;;;;;4.22;1.10;;;21.70;47.90;;;;;;5016041;28;20125;-62
2021/12/29 11:11:59;;;;;;;2.42;1.10;;;21.60;47.80;;;;;;5015960;28;21391;-61
2021/12/29 11:14:31;;;;;;;2.67;0.93;;;21.70;47.80;;;;;;5015999;28;20055;-58
2021/12/29 11:17:08;;;;;;;4.30;1.40;;;21.70;47.90;;;;;;5013329;28;20073;-60
2021/12/29 11:19:36;;;;;;;2.90;1.38;;;21.70;47.90;;;;;;5017977;28;20116;-59
2021/12/29 11:22:16;;;;;;;5.25;1.55;;;21.70;48.00;;;;;;5014818;28;20412;-58
2021/12/29 11:24:43;;;;;;;4.68;1.40;;;21.70;47.90;;;;;;5018097;28;20045;-58
2021/12/29 11:27:16;;;;;;;6.40;1.58;;;21.70;48.00;;;;;;5014522;28;20044;-58
2021/12/29 11:29:51;;;;;;;4.57;1.30;;;21.70;48.00;;;;;;5014538;28;20060;-59
2021/12/29 11:32:23;;;;;;;3.20;1.30;;;21.70;48.00;;;;;;5016608;28;20037;-59
2021/12/29 11:35:13;;;;;;;7.30;1.50;;;21.70;48.10;;;;;;5015266;28;20049;-60
2021/12/29 11:37:47;;;;;;;6.30;1.67;;;21.70;48.10;;;;;;5014719;28;20053;-60
2021/12/29 11:40:17;;;;;;;4.78;1.30;;;21.70;48.20;;;;;;5014580;28;20416;-58
2021/12/29 11:42:42;;;;;;;5.00;1.17;;;21.70;48.30;;;;;;5015517;28;20519;-58
2021/12/29 11:45:11;;;;;;;2.63;1.27;;;21.70;48.20;;;;;;5015498;28;20120;-59
2021/12/29 11:47:37;;;;;;;5.00;1.83;;;21.70;48.30;;;;;;5014525;28;20247;-58
2021/12/29 11:50:05;;;;;;;4.15;1.58;;;21.70;48.40;;;;;;5015601;28;20912;-58
2021/12/29 11:52:54;;;;;;;2.85;1.02;;;21.70;48.40;;;;;;5013720;28;20041;-60
2021/12/29 11:55:28;;;;;;;4.10;1.20;;;21.70;48.60;;;;;;5015892;28;20069;-59
2021/12/29 11:57:54;;;;;;;4.38;1.75;;;21.70;48.70;;;;;;5013998;28;20030;-59
2021/12/29 12:00:23;;;;;;;5.60;1.70;;;21.70;49.00;;;;;;5013838;28;21999;-58
2021/12/29 12:02:51;;;;;;;5.65;1.33;;;21.70;49.00;;;;;;5017274;28;20111;-58
2021/12/29 12:05:22;;;;;;;6.00;1.70;;;21.70;49.10;;;;;;5013077;28;20041;-59
2021/12/29 12:07:48;;;;;;;4.40;1.20;;;21.70;49.10;;;;;;5014380;28;20034;-58
2021/12/29 12:10:33;;;;;;;5.28;1.50;;;21.80;49.20;;;;;;5014598;28;20501;-57
2021/12/29 12:12:59;;;;;;;6.22;1.55;;;21.70;49.00;;;;;;5015461;28;27126;-58
2021/12/29 12:15:32;;;;;;;4.75;1.30;;;21.70;49.00;;;;;;5014554;28;20650;-59
2021/12/29 12:18:06;;;;;;;5.22;1.70;;;21.70;48.90;;;;;;5015934;28;20450;-57
2021/12/29 12:20:58;;;;;;;4.63;1.60;;;21.70;49.00;;;;;;5014286;28;20102;-58
2021/12/29 12:23:29;;;;;;;5.28;1.60;;;21.70;48.90;;;;;;5009272;28;20045;-58
2021/12/29 12:26:10;;;;;;;4.40;1.60;;;21.70;48.90;;;;;;5015489;28;20354;-58
2021/12/29 12:28:44;;;;;;;6.00;1.75;;;21.70;48.80;;;;;;5013381;28;20075;-59
2021/12/29 12:31:24;;;;;;;3.05;1.40;;;21.70;48.80;;;;;;5016101;28;20038;-58
2021/12/29 12:33:51;;;;;;;3.05;1.10;;;21.70;48.70;;;;;;5014233;28;20049;-58
2021/12/29 12:36:17;;;;;;;6.18;1.60;;;21.70;48.70;;;;;;5013450;28;20120;-59
2021/12/29 12:38:43;;;;;;;6.18;1.50;;;21.70;48.70;;;;;;5014599;28;20485;-59
2021/12/29 12:41:13;;;;;;;4.35;1.50;;;21.70;48.60;;;;;;5013768;28;20061;-58
2021/12/29 12:43:57;;;;;;;3.42;1.58;;;21.70;48.60;;;;;;5013709;28;20041;-57
2021/12/29 12:46:33;;;;;;;4.50;1.30;;;21.70;48.50;;;;;;5014612;28;20932;-58
2021/12/29 12:49:10;;;;;;;3.13;1.45;;;21.70;48.50;;;;;;5014476;28;20053;-58
2021/12/29 12:51:36;;;;;;;2.63;1.30;;;21.70;48.60;;;;;;5014557;28;20048;-60
2021/12/29 12:54:15;;;;;;;3.85;1.45;;;21.60;48.40;;;;;;5014478;28;20034;-60